Time;durP1;ratioP1;P1;durP2;ratioP2;P2;SDS_P1;SDS_P2;PMS_P1;PMS_P2;Temp;Humidity;BMP_temperature;BMP_pressure;BME280_temperature;BME280_humidity;BME280_pressure;Samples;Min_cycle;Max_cycle;Signal;HPM_P1;HPM_P2
2022/01/17 00:00:58;;;;;;;10.02;1.42;;;;;;;4.72;96.87;102700.19;4901350;29;20064;-79
2022/01/17 00:03:25;;;;;;;7.07;2.42;;;;;;;4.57;96.75;102685.16;4928865;29;20416;-79
2022/01/17 00:05:52;;;;;;;10.65;2.35;;;;;;;4.69;96.61;102695.09;4910322;29;20346;-79
2022/01/17 00:08:18;;;;;;;10.05;1.38;;;;;;;4.71;96.83;102708.97;4909409;29;20110;-79
2022/01/17 00:10:43;;;;;;;12.20;4.43;;;;;;;4.63;96.54;102690.13;4913653;29;20036;-79
2022/01/17 00:13:13;;;;;;;9.98;1.77;;;;;;;4.75;96.96;102705.31;4900782;29;20039;-79
2022/01/17 00:15:49;;;;;;;9.32;1.90;;;;;;;4.73;97.31;102712.38;4923131;29;20050;-79
2022/01/17 00:20:45;;;;;;;8.05;1.67;;;;;;;4.65;97.28;102693.53;4924972;29;20031;-79
2022/01/17 00:23:10;;;;;;;7.47;1.63;;;;;;;4.64;96.95;102700.53;4925185;29;20083;-79
2022/01/17 00:25:36;;;;;;;7.72;1.10;;;;;;;4.55;97.26;102690.44;4924281;29;20036;-79
2022/01/17 00:28:01;;;;;;;5.80;1.30;;;;;;;4.44;96.93;102690.94;4898650;29;20031;-79
2022/01/17 00:30:27;;;;;;;6.20;1.55;;;;;;;4.63;97.41;102716.28;4896272;29;20043;-79
2022/01/17 00:32:52;;;;;;;13.13;1.90;;;;;;;4.58;97.22;102698.19;4916357;28;20043;-79
2022/01/17 00:35:17;;;;;;;7.38;1.63;;;;;;;4.59;97.40;102699.03;4922963;29;20028;-79
2022/01/17 00:37:43;;;;;;;9.02;2.05;;;;;;;4.57;97.41;102695.63;4909686;29;20066;-79
2022/01/17 00:40:09;;;;;;;8.57;0.93;;;;;;;4.68;97.19;102716.94;4907955;29;20055;-79
2022/01/17 00:42:34;;;;;;;4.28;1.30;;;;;;;4.56;96.94;102696.56;4916292;29;20028;-79
2022/01/17 00:45:06;;;;;;;10.35;1.30;;;;;;;4.68;97.51;102703.84;4914491;29;20105;-79
2022/01/17 00:47:31;;;;;;;7.93;1.77;;;;;;;4.65;97.57;102697.00;4901436;29;20432;-79
2022/01/17 00:49:58;;;;;;;9.25;1.42;;;;;;;4.52;97.83;102693.22;4924688;29;20024;-79
2022/01/17 00:52:23;;;;;;;7.70;2.55;;;;;;;4.49;97.89;102694.19;4926878;29;20067;-79
2022/01/17 00:54:48;;;;;;;14.05;1.90;;;;;;;4.35;97.38;102675.63;4882812;29;20040;-79
2022/01/17 00:57:14;;;;;;;12.52;1.60;;;;;;;4.33;97.56;102682.66;4927307;29;20147;-79
2022/01/17 00:59:39;;;;;;;10.45;2.05;;;;;;;4.54;97.87;102712.28;4898963;29;20032;-79
2022/01/17 01:02:05;;;;;;;8.65;1.58;;;;;;;4.57;98.23;102717.38;4899385;29;20080;-79
2022/01/17 01:04:30;;;;;;;9.50;1.48;;;;;;;4.53;98.49;102716.69;4920498;29;20091;-79
2022/01/17 01:06:56;;;;;;;13.00;1.85;;;;;;;4.53;98.54;102711.47;4905334;29;20031;-79
2022/01/17 01:09:21;;;;;;;3.25;1.17;;;;;;;4.43;98.73;102691.00;4924274;29;20036;-79
2022/01/17 01:11:47;;;;;;;11.45;1.58;;;;;;;4.56;98.88;102702.63;4926983;29;20036;-79
2022/01/17 01:14:12;;;;;;;12.13;1.48;;;;;;;4.56;98.73;102699.16;4926031;29;20115;-79
2022/01/17 01:16:38;;;;;;;6.85;1.40;;;;;;;4.57;99.10;102709.53;4906163;29;20039;-79
2022/01/17 01:19:26;;;;;;;9.73;2.75;;;;;;;4.58;98.73;102705.19;4921959;29;20028;-79
2022/01/17 01:29:56;;;;;;;8.13;1.75;;;;;;;4.45;99.23;102679.53;4912523;29;20818;-79
2022/01/17 01:32:26;;;;;;;6.70;1.97;;;;;;;4.23;99.00;102650.00;4924239;29;20075;-79
2022/01/17 01:34:54;;;;;;;12.43;1.60;;;;;;;4.30;99.69;102672.34;4923806;29;20028;-79
2022/01/17 01:37:19;;;;;;;9.07;1.45;;;;;;;4.40;99.47;102699.81;4894853;29;20044;-79
2022/01/17 01:39:48;;;;;;;11.50;1.65;;;;;;;4.40;99.76;102701.56;4922656;29;20448;-80
2022/01/17 01:42:17;;;;;;;3.17;1.20;;;;;;;4.39;100.00;102687.63;4907686;29;20071;-79
2022/01/17 01:44:43;;;;;;;8.15;1.25;;;;;;;4.37;100.00;102691.25;4915030;29;20035;-79
2022/01/17 01:47:08;;;;;;;10.45;1.20;;;;;;;4.37;100.00;102699.09;4926800;29;20063;-79
2022/01/17 01:49:35;;;;;;;4.25;1.15;;;;;;;4.19;100.00;102685.03;4928349;29;20048;-79
2022/01/17 01:52:00;;;;;;;5.45;1.25;;;;;;;4.31;100.00;102713.25;4928962;29;20456;-79
2022/01/17 01:54:26;;;;;;;10.25;1.45;;;;;;;4.16;100.00;102692.97;4927033;29;20035;-79
2022/01/17 01:56:51;;;;;;;5.00;0.88;;;;;;;4.26;100.00;102713.44;4918594;29;20127;-79
2022/01/17 01:59:20;;;;;;;13.32;1.80;;;;;;;4.19;100.00;102700.69;4900784;29;20032;-79
2022/01/17 02:01:46;;;;;;;9.38;1.50;;;;;;;4.12;100.00;102697.50;4910091;29;20126;-79
2022/01/17 02:04:13;;;;;;;4.70;0.95;;;;;;;4.15;100.00;102717.41;4928736;29;20365;-79
2022/01/17 02:06:39;;;;;;;8.15;1.13;;;;;;;3.96;100.00;102701.63;4929586;29;20032;-79
2022/01/17 02:09:05;;;;;;;7.68;1.65;;;;;;;4.07;100.00;102721.19;4927146;29;20059;-79
2022/01/17 02:11:31;;;;;;;4.07;0.80;;;;;;;4.05;100.00;102720.41;4929327;29;20063;-79
2022/01/17 02:13:57;;;;;;;25.42;2.47;;;;;;;4.00;100.00;102716.28;4925888;29;20047;-79
2022/01/17 02:16:23;;;;;;;8.27;1.70;;;;;;;4.06;100.00;102726.47;4903230;29;20036;-79
2022/01/17 02:18:49;;;;;;;16.60;1.63;;;;;;;3.95;100.00;102702.56;4915488;29;20104;-79
2022/01/17 02:23:51;;;;;;;6.38;1.42;;;;;;;4.09;100.00;102731.56;4928261;29;20032;-79
2022/01/17 02:26:18;;;;;;;9.63;1.40;;;;;;;4.09;100.00;102736.78;4926606;29;20475;-79
2022/01/17 02:28:46;;;;;;;5.35;1.23;;;;;;;4.10;100.00;102723.69;4928257;29;20055;-79
2022/01/17 02:31:11;;;;;;;21.67;2.45;;;;;;;3.96;100.00;102699.00;4915170;29;20036;-79
2022/01/17 02:33:36;;;;;;;12.77;2.17;;;;;;;3.99;100.00;102699.75;4909785;29;20027;-80
2022/01/17 02:36:03;;;;;;;11.93;1.58;;;;;;;3.88;100.00;102674.06;4911573;29;20091;-79
2022/01/17 02:38:29;;;;;;;6.40;1.35;;;;;;;3.85;100.00;102661.09;4917657;29;20090;-79
2022/01/17 02:40:55;;;;;;;11.25;2.00;;;;;;;3.91;100.00;102692.22;4901931;29;20032;-79
2022/01/17 02:43:22;;;;;;;10.27;1.42;;;;;;;3.84;100.00;102672.47;4926104;29;20031;-79
2022/01/17 02:48:18;;;;;;;11.75;1.83;;;;;;;3.94;100.00;102703.44;4910512;29;20334;-79
2022/01/17 02:50:43;;;;;;;17.88;1.90;;;;;;;3.95;100.00;102703.41;4903175;29;20559;-79
2022/01/17 02:53:09;;;;;;;9.35;1.17;;;;;;;3.77;100.00;102668.41;4915938;29;20103;-79
2022/01/17 02:55:36;;;;;;;9.05;1.85;;;;;;;3.95;100.00;102682.50;4930477;29;20047;-79
2022/01/17 02:58:03;;;;;;;7.13;1.80;;;;;;;3.94;100.00;102672.09;4913657;29;20056;-79
2022/01/17 03:00:28;;;;;;;9.68;1.55;;;;;;;3.90;100.00;102669.63;4926800;29;20030;-79
2022/01/17 03:02:54;;;;;;;4.45;1.45;;;;;;;3.83;100.00;102668.19;4918530;29;20770;-79
2022/01/17 03:05:20;;;;;;;11.95;1.58;;;;;;;3.94;100.00;102680.78;4915513;29;20032;-79
2022/01/17 03:07:48;;;;;;;15.27;1.85;;;;;;;3.76;100.00;102660.63;4914611;29;20039;-79
2022/01/17 03:10:28;;;;;;;5.32;1.15;;;;;;;3.86;100.00;102669.81;4927845;29;20095;-79
2022/01/17 03:13:03;;;;;;;7.30;1.63;;;;;;;3.75;100.00;102658.94;4898018;29;20028;-79
2022/01/17 03:15:29;;;;;;;6.72;1.27;;;;;;;4.06;100.00;102703.81;4924806;29;20051;-79
2022/01/17 03:17:55;;;;;;;12.82;1.75;;;;;;;3.96;100.00;102685.94;4926578;29;20030;-79
2022/01/17 03:20:21;;;;;;;8.40;1.08;;;;;;;4.15;100.00;102715.66;4902712;29;20040;-79
2022/01/17 03:22:46;;;;;;;9.00;2.08;;;;;;;4.01;100.00;102695.31;4925944;29;20043;-79
2022/01/17 03:25:12;;;;;;;4.32;0.70;;;;;;;4.19;100.00;102716.38;4893353;29;20036;-79
2022/01/17 03:27:37;;;;;;;5.35;1.08;;;;;;;4.25;100.00;102730.06;4924476;29;20066;-79
2022/01/17 03:30:04;;;;;;;14.20;1.35;;;;;;;4.17;100.00;102705.16;4915699;29;20480;-79
2022/01/17 03:32:29;;;;;;;2.97;0.90;;;;;;;4.31;100.00;102718.47;4925081;29;20044;-79
2022/01/17 03:34:55;;;;;;;6.50;1.13;;;;;;;4.24;100.00;102698.75;4915789;29;20067;-79
2022/01/17 03:37:21;;;;;;;8.38;1.35;;;;;;;4.13;100.00;102686.97;4898678;29;20044;-79
2022/01/17 03:39:46;;;;;;;9.10;1.73;;;;;;;4.39;100.00;102719.00;4899774;29;20126;-80
2022/01/17 03:42:12;;;;;;;5.65;1.25;;;;;;;4.39;100.00;102724.25;4924994;29;20032;-79
2022/01/17 03:44:37;;;;;;;9.13;1.38;;;;;;;4.31;100.00;102695.81;4900593;29;20480;-79
2022/01/17 03:47:03;;;;;;;9.80;1.05;;;;;;;4.35;100.00;102701.75;4899085;29;20036;-79
2022/01/17 03:49:28;;;;;;;12.93;1.55;;;;;;;4.31;100.00;102689.72;4895768;29;20031;-79
2022/01/17 03:51:54;;;;;;;7.57;1.67;;;;;;;4.47;100.00;102708.25;4907315;29;20524;-79
2022/01/17 03:54:19;;;;;;;8.25;1.90;;;;;;;4.47;100.00;102713.47;4908085;29;20042;-79
2022/01/17 03:56:44;;;;;;;9.93;1.63;;;;;;;4.38;100.00;102680.72;4926430;29;20023;-79
2022/01/17 03:59:11;;;;;;;7.85;1.42;;;;;;;4.51;100.00;102705.44;4907632;29;20054;-79
2022/01/17 04:01:37;;;;;;;7.40;1.40;;;;;;;4.52;100.00;102699.28;4895904;29;20062;-79
2022/01/17 04:04:03;;;;;;;10.85;2.45;;;;;;;4.48;100.00;102702.09;4924403;29;20120;-79
2022/01/17 04:06:28;;;;;;;13.45;1.73;;;;;;;4.18;100.00;102641.50;4900137;29;20150;-79
2022/01/17 04:08:54;;;;;;;4.43;1.00;;;;;;;4.47;100.00;102689.94;4896515;29;20043;-79
2022/01/17 04:11:19;;;;;;;15.15;1.75;;;;;;;4.39;100.00;102674.56;4896039;29;20040;-79
2022/01/17 04:13:45;;;;;;;10.05;1.55;;;;;;;4.42;100.00;102677.06;4899543;29;20043;-79
2022/01/17 04:16:12;;;;;;;9.38;1.33;;;;;;;4.50;100.00;102695.88;4896971;29;20043;-79
2022/01/17 04:18:37;;;;;;;15.60;1.92;;;;;;;4.45;100.00;102689.16;4894438;29;20024;-79
2022/01/17 04:21:03;;;;;;;5.28;0.93;;;;;;;4.57;100.00;102714.78;4892909;29;20115;-79
2022/01/17 04:23:30;;;;;;;6.07;1.80;;;;;;;4.61;100.00;102718.97;4906579;29;20024;-79
2022/01/17 04:25:56;;;;;;;9.52;1.63;;;;;;;4.62;100.00;102719.84;4921812;29;20168;-79
2022/01/17 04:28:22;;;;;;;14.38;1.67;;;;;;;4.57;100.00;102708.69;4912995;29;20488;-79
2022/01/17 04:30:47;;;;;;;8.55;1.58;;;;;;;4.64;100.00;102717.97;4908654;29;20030;-79
2022/01/17 04:33:13;;;;;;;11.27;1.88;;;;;;;4.60;100.00;102712.03;4925803;29;20095;-79
2022/01/17 04:35:41;;;;;;;11.10;2.03;;;;;;;4.58;100.00;102705.19;4920903;29;20028;-79
2022/01/17 04:38:12;;;;;;;8.50;1.40;;;;;;;4.62;100.00;102714.59;4922232;29;20083;-79
2022/01/17 04:40:39;;;;;;;13.10;2.20;;;;;;;4.51;100.00;102692.38;4921998;29;20424;-80
2022/01/17 04:43:44;;;;;;;10.88;1.50;;;;;;;4.52;100.00;102699.28;4913358;29;20032;-79
2022/01/17 04:46:07;;;;;;;12.50;2.15;;;;;;;4.58;100.00;102692.94;4923025;29;20035;-79
2022/01/17 04:48:34;;;;;;;6.90;1.55;;;;;;;4.66;100.00;102708.28;4914057;29;20095;-79
2022/01/17 04:51:00;;;;;;;6.00;0.90;;;;;;;4.73;100.00;102714.97;4908650;29;20035;-79
2022/01/17 04:53:29;;;;;;;18.95;2.13;;;;;;;4.72;100.00;102713.28;4901136;29;20079;-79
2022/01/17 04:55:55;;;;;;;14.35;2.05;;;;;;;4.77;100.00;102726.16;4906393;29;20040;-79
2022/01/17 04:58:21;;;;;;;9.65;1.55;;;;;;;4.77;100.00;102713.94;4907833;29;20040;-79
2022/01/17 05:00:47;;;;;;;12.15;2.00;;;;;;;4.77;100.00;102713.06;4913218;29;20127;-79
2022/01/17 05:03:20;;;;;;;5.43;1.23;;;;;;;4.69;100.00;102695.09;4907542;29;20020;-79
2022/01/17 05:05:46;;;;;;;10.80;2.33;;;;;;;4.61;100.00;102679.72;4908689;29;20144;-79
2022/01/17 05:08:12;;;;;;;8.40;1.52;;;;;;;4.78;100.00;102713.00;4919357;29;20083;-80
2022/01/17 05:10:38;;;;;;;20.25;4.40;;;;;;;4.69;100.00;102700.34;4927086;29;20083;-81
2022/01/17 05:13:04;;;;;;;7.68;1.88;;;;;;;4.61;100.00;102687.56;4904422;29;20385;-79
2022/01/17 05:20:24;;;;;;;9.52;2.03;;;;;;;4.71;100.00;102685.44;4913389;29;20040;-79
2022/01/17 05:22:49;;;;;;;13.07;2.03;;;;;;;4.84;100.00;102701.44;4903695;29;20051;-79
2022/01/17 05:25:15;;;;;;;16.02;2.35;;;;;;;4.80;100.00;102698.09;4933391;29;20032;-79
2022/01/17 05:27:40;;;;;;;13.00;2.42;;;;;;;4.80;100.00;102692.03;4910469;29;20153;-79
2022/01/17 05:30:10;;;;;;;7.47;1.70;;;;;;;4.80;100.00;102687.63;4920088;29;20055;-79
2022/01/17 05:32:37;;;;;;;13.85;2.33;;;;;;;4.76;100.00;102673.00;4928082;29;20042;-79
2022/01/17 05:35:03;;;;;;;9.60;2.42;;;;;;;4.73;100.00;102675.75;4929260;29;20026;-79
2022/01/17 05:37:29;;;;;;;11.68;2.00;;;;;;;4.99;100.00;102713.84;4931263;29;20024;-79
2022/01/17 05:39:54;;;;;;;10.35;3.00;;;;;;;4.99;100.00;102707.75;4903061;29;20042;-80
2022/01/17 05:42:20;;;;;;;8.27;1.92;;;;;;;5.00;100.00;102720.75;4905914;29;20368;-80
2022/01/17 05:44:47;;;;;;;11.23;2.10;;;;;;;5.02;100.00;102712.84;4909851;29;20050;-80
2022/01/17 05:47:13;;;;;;;6.35;1.35;;;;;;;5.06;100.00;102706.56;4913898;29;20047;-80
2022/01/17 05:49:38;;;;;;;19.20;2.33;;;;;;;5.07;100.00;102689.94;4921045;29;20559;-80
2022/01/17 05:52:04;;;;;;;14.15;3.53;;;;;;;4.96;100.00;102679.94;4928212;29;20041;-80
2022/01/17 05:54:30;;;;;;;9.38;2.50;;;;;;;4.99;100.00;102673.72;4927293;29;20049;-79
2022/01/17 05:56:55;;;;;;;7.82;1.83;;;;;;;5.00;100.00;102672.81;4889397;29;20100;-79
2022/01/17 05:59:21;;;;;;;5.00;1.38;;;;;;;5.09;100.00;102693.34;4921336;29;20555;-79
2022/01/17 06:01:47;;;;;;;17.88;2.67;;;;;;;5.03;100.00;102689.25;4932091;29;20039;-79
2022/01/17 06:04:13;;;;;;;6.20;1.67;;;;;;;5.13;100.00;102707.97;4896994;29;20031;-80
2022/01/17 06:06:38;;;;;;;18.50;2.38;;;;;;;5.02;100.00;102687.53;4910128;29;20019;-80
2022/01/17 06:09:04;;;;;;;8.32;1.75;;;;;;;5.16;100.00;102710.44;4922489;29;20065;-80
2022/01/17 06:11:30;;;;;;;12.93;1.90;;;;;;;5.17;100.00;102708.72;4909468;29;20582;-80
2022/01/17 06:13:57;;;;;;;16.50;3.00;;;;;;;5.16;100.00;102710.44;4919295;29;20520;-80
2022/01/17 06:16:23;;;;;;;10.05;2.00;;;;;;;5.12;100.00;102722.00;4903536;29;20032;-80
2022/01/17 06:18:48;;;;;;;12.70;1.98;;;;;;;5.09;100.00;102707.25;4915412;29;20058;-80
2022/01/17 06:21:13;;;;;;;16.80;2.40;;;;;;;5.11;100.00;102712.44;4907144;29;20036;-82
2022/01/17 06:23:39;;;;;;;20.67;2.45;;;;;;;5.16;100.00;102707.84;4926833;29;20106;-81
2022/01/17 06:26:05;;;;;;;8.80;2.28;;;;;;;5.22;100.00;102707.56;4902764;29;20027;-80
2022/01/17 06:28:30;;;;;;;15.55;2.40;;;;;;;4.92;100.00;102666.16;4896842;29;20087;-80
2022/01/17 06:30:55;;;;;;;10.63;2.03;;;;;;;5.13;100.00;102687.88;4908080;29;20129;-79
2022/01/17 06:33:21;;;;;;;20.73;3.33;;;;;;;5.19;100.00;102694.63;4889215;29;20444;-79
2022/01/17 06:35:46;;;;;;;14.77;3.55;;;;;;;5.25;100.00;102707.44;4873221;29;20087;-79
2022/01/17 06:38:12;;;;;;;9.38;2.78;;;;;;;5.09;100.00;102682.88;4901639;29;20111;-79
2022/01/17 06:40:37;;;;;;;13.30;2.55;;;;;;;5.25;100.00;102710.06;4884038;29;20040;-80
2022/01/17 06:43:04;;;;;;;19.35;2.80;;;;;;;5.26;100.00;102711.75;4919897;29;20373;-80
2022/01/17 06:45:30;;;;;;;16.73;2.67;;;;;;;5.07;100.00;102690.78;4921533;29;20603;-79
2022/01/17 06:47:55;;;;;;;12.10;2.03;;;;;;;5.19;100.00;102712.94;4903853;29;20079;-79
2022/01/17 06:50:21;;;;;;;15.95;2.22;;;;;;;5.11;100.00;102710.66;4880835;29;20032;-79
2022/01/17 06:52:47;;;;;;;15.75;2.10;;;;;;;5.34;100.00;102753.31;4882013;29;20055;-79
2022/01/17 06:55:12;;;;;;;12.32;2.83;;;;;;;5.33;100.00;102778.66;4914028;29;20103;-78
2022/01/17 06:57:38;;;;;;;12.40;1.90;;;;;;;5.29;100.00;102774.47;4901783;29;20057;-78
2022/01/17 07:00:08;;;;;;;26.55;3.65;;;;;;;5.40;100.00;102791.44;4917387;29;20417;-79
2022/01/17 07:02:34;;;;;;;15.30;2.75;;;;;;;5.32;100.00;102800.50;4903462;29;20404;-81
2022/01/17 07:04:59;;;;;;;12.98;2.55;;;;;;;5.43;100.00;102809.66;4909035;29;20116;-80
2022/01/17 07:07:26;;;;;;;18.40;3.38;;;;;;;5.48;100.00;102799.81;4902226;29;20382;-79
2022/01/17 07:09:51;;;;;;;13.27;2.20;;;;;;;5.42;100.00;102764.28;4909135;29;20119;-79
2022/01/17 07:12:17;;;;;;;9.68;2.65;;;;;;;5.40;100.00;102733.84;4888519;29;20464;-78
2022/01/17 07:14:42;;;;;;;19.90;2.47;;;;;;;5.46;100.00;102731.78;4887505;29;20038;-78
2022/01/17 07:17:11;;;;;;;17.80;2.28;;;;;;;5.46;100.00;102723.06;4891935;29;20119;-79
2022/01/17 07:19:38;;;;;;;10.27;3.38;;;;;;;5.53;100.00;102741.06;4910379;29;20515;-79
2022/01/17 07:22:04;;;;;;;17.60;2.78;;;;;;;5.56;100.00;102742.69;4910365;29;20050;-79
2022/01/17 07:24:30;;;;;;;13.77;2.45;;;;;;;5.49;100.00;102729.03;4911308;29;20575;-78
2022/01/17 07:26:55;;;;;;;23.88;2.25;;;;;;;5.61;100.00;102753.78;4900714;29;20118;-80
2022/01/17 07:29:21;;;;;;;17.83;4.05;;;;;;;5.52;100.00;102728.88;4917825;29;20160;-79
2022/01/17 07:31:47;;;;;;;15.63;2.97;;;;;;;5.52;100.00;102722.81;4911655;29;20032;-79
2022/01/17 07:34:12;;;;;;;18.55;2.63;;;;;;;5.70;100.00;102769.09;4916504;29;20033;-79
2022/01/17 07:36:38;;;;;;;30.45;2.85;;;;;;;5.70;100.00;102763.84;4907329;29;20427;-79
2022/01/17 07:39:03;;;;;;;11.85;2.38;;;;;;;5.76;100.00;102773.19;4901097;29;20151;-80
2022/01/17 07:41:29;;;;;;;11.98;2.47;;;;;;;5.59;100.00;102742.53;4903764;29;20067;-80
2022/01/17 07:43:54;;;;;;;23.70;3.08;;;;;;;5.82;100.00;102777.31;4906563;29;20156;-80
2022/01/17 07:46:25;;;;;;;14.18;2.70;;;;;;;5.85;100.00;102788.50;4910221;29;20047;-82
2022/01/17 07:49:09;;;;;;;;;;;;;;;5.90;100.00;102796.13;4911049;29;20271;-78
2022/01/17 07:51:41;;;;;;;16.15;2.83;;;;;;;5.82;100.00;102787.81;4901617;29;20004;-78
2022/01/17 07:54:08;;;;;;;15.98;2.58;;;;;;;5.95;100.00;102796.81;4909278;29;20048;-78
2022/01/17 07:56:34;;;;;;;19.98;2.95;;;;;;;5.82;100.00;102772.09;4914705;29;20024;-78
2022/01/17 07:59:00;;;;;;;15.93;2.90;;;;;;;5.92;100.00;102796.91;4908914;29;20032;-78
2022/01/17 08:01:26;;;;;;;15.15;2.83;;;;;;;6.00;100.00;102818.41;4908714;29;20445;-78
2022/01/17 08:03:51;;;;;;;24.02;2.95;;;;;;;6.02;100.00;102807.88;4902210;29;20033;-78
2022/01/17 08:06:17;;;;;;;18.25;3.78;;;;;;;6.01;100.00;102817.50;4903202;29;20512;-78
2022/01/17 08:08:42;;;;;;;20.27;3.35;;;;;;;6.05;100.00;102818.19;4905602;29;20040;-78
2022/01/17 08:11:08;;;;;;;21.85;2.45;;;;;;;5.95;100.00;102796.81;4893429;29;20229;-78
2022/01/17 08:13:33;;;;;;;29.05;3.20;;;;;;;6.06;100.00;102810.25;4903153;29;20043;-78
2022/01/17 08:15:59;;;;;;;16.80;2.65;;;;;;;6.10;100.00;102819.69;4905220;29;20064;-78
2022/01/17 08:18:24;;;;;;;18.35;2.67;;;;;;;5.92;100.00;102797.78;4914487;29;20107;-78
2022/01/17 08:20:50;;;;;;;14.85;3.08;;;;;;;6.05;100.00;102800.69;4887804;29;20358;-78
2022/01/17 08:23:15;;;;;;;10.35;1.75;;;;;;;6.09;100.00;102809.25;4886798;29;20027;-79
2022/01/17 08:25:40;;;;;;;15.07;2.50;;;;;;;6.10;100.00;102803.13;4894253;29;20142;-79
2022/01/17 08:28:06;;;;;;;13.98;1.92;;;;;;;6.22;100.00;102822.66;4909102;29;20107;-79
2022/01/17 08:30:32;;;;;;;18.65;3.80;;;;;;;6.26;100.00;102813.72;4894628;29;20020;-79
2022/01/17 08:32:59;;;;;;;15.68;2.20;;;;;;;6.31;100.00;102809.94;4908292;29;20952;-79
2022/01/17 08:35:25;;;;;;;20.08;2.40;;;;;;;6.33;100.00;102815.09;4902628;29;20787;-79
2022/01/17 08:37:51;;;;;;;23.80;3.75;;;;;;;6.28;100.00;102790.88;4900812;29;20038;-79
2022/01/17 08:40:18;;;;;;;17.88;2.97;;;;;;;6.42;100.00;102821.69;4894284;29;20031;-79
2022/01/17 08:42:44;;;;;;;24.35;3.45;;;;;;;6.29;100.00;102793.44;4904618;29;20038;-79
2022/01/17 08:45:11;;;;;;;19.25;3.72;;;;;;;6.51;100.00;102829.97;4908794;29;20402;-79
2022/01/17 08:47:37;;;;;;;20.42;3.17;;;;;;;6.45;100.00;102825.00;4912497;29;20473;-78
2022/01/17 08:50:07;;;;;;;20.38;3.35;;;;;;;6.58;100.00;102852.34;4900573;29;20110;-78
2022/01/17 08:52:32;;;;;;;25.13;3.87;;;;;;;6.61;100.00;102840.84;4911080;29;20102;-78
2022/01/17 08:54:58;;;;;;;16.23;2.65;;;;;;;6.51;100.00;102823.84;4905866;29;20516;-79
2022/01/17 08:57:25;;;;;;;20.83;3.50;;;;;;;6.64;100.00;102835.47;4902130;29;20032;-79
2022/01/17 08:59:51;;;;;;;17.50;3.53;;;;;;;6.56;100.00;102827.13;4899681;29;20108;-79
2022/01/17 09:02:17;;;;;;;24.55;3.05;;;;;;;6.69;100.00;102848.34;4903379;29;20172;-78
2022/01/17 09:04:43;;;;;;;19.65;3.45;;;;;;;6.76;100.00;102855.00;4900511;29;20063;-78
2022/01/17 09:07:15;;;;;;;14.82;3.80;;;;;;;6.75;100.00;102848.03;4905802;29;20035;-78
2022/01/17 09:09:41;;;;;;;13.60;4.25;;;;;;;6.78;100.00;102856.59;4906989;29;20016;-79
2022/01/17 09:12:09;;;;;;;14.20;4.03;;;;;;;6.86;100.00;102851.00;4901562;29;20059;-79
2022/01/17 09:14:35;;;;;;;15.18;2.88;;;;;;;6.90;100.00;102855.16;4913575;29;20127;-79
2022/01/17 09:17:02;;;;;;;23.08;2.80;;;;;;;6.97;100.00;102861.81;4903930;29;20040;-79
2022/01/17 09:19:28;;;;;;;31.30;3.80;;;;;;;6.90;100.00;102833.28;4900851;29;20123;-79
2022/01/17 09:21:54;;;;;;;20.77;4.65;;;;;;;7.03;100.00;102859.78;4891670;29;20039;-78
2022/01/17 09:24:20;;;;;;;24.48;3.53;;;;;;;7.02;100.00;102860.72;4923076;29;20485;-79
2022/01/17 09:26:46;;;;;;;16.75;3.90;;;;;;;7.04;100.00;102864.13;4903542;29;20040;-79
2022/01/17 09:29:12;;;;;;;18.63;2.97;;;;;;;7.02;100.00;102876.47;4904743;29;20047;-79
2022/01/17 09:31:38;;;;;;;18.10;3.45;;;;;;;6.85;100.00;102844.03;4899875;29;20032;-79
2022/01/17 09:34:03;;;;;;;28.88;5.68;;;;;;;7.00;100.00;102880.00;4896832;29;20393;-78
2022/01/17 09:36:31;;;;;;;16.15;3.38;;;;;;;6.88;100.00;102859.66;4894639;29;20590;-78
2022/01/17 09:38:57;;;;;;;20.52;3.55;;;;;;;7.01;100.00;102875.59;4892320;29;20152;-79
2022/01/17 09:41:23;;;;;;;14.75;2.95;;;;;;;6.97;100.00;102874.94;4895955;29;20697;-78
2022/01/17 09:43:50;;;;;;;22.05;3.40;;;;;;;6.92;100.00;102855.91;4901359;29;20043;-79
2022/01/17 09:46:17;;;;;;;17.98;2.97;;;;;;;7.14;100.00;102881.97;4902496;29;20041;-79
2022/01/17 09:48:47;;;;;;;19.67;4.63;;;;;;;7.24;100.00;102879.69;4899269;29;20056;-79
2022/01/17 09:51:41;;;;;;;15.02;3.03;;;;;;;7.33;100.00;102899.41;4906035;29;20043;-79
2022/01/17 09:54:05;;;;;;;23.70;3.53;;;;;;;7.27;100.00;102879.53;4919117;29;20543;-79
2022/01/17 09:56:31;;;;;;;24.85;3.83;;;;;;;7.32;100.00;102889.84;4911261;29;20068;-78
2022/01/17 09:58:58;;;;;;;32.40;4.20;;;;;;;7.47;100.00;102922.31;4891923;29;20055;-79
2022/01/17 10:01:24;;;;;;;31.52;4.28;;;;;;;7.34;100.00;102894.06;4922829;29;20377;-79
2022/01/17 10:03:52;;;;;;;28.85;4.03;;;;;;;7.54;100.00;102923.72;4896134;29;20028;-78
2022/01/17 10:06:19;;;;;;;26.02;3.92;;;;;;;7.47;100.00;102919.69;4911674;29;20134;-79
2022/01/17 10:08:44;;;;;;;20.23;3.15;;;;;;;7.71;100.00;102934.22;4913630;29;20112;-79
2022/01/17 10:11:15;;;;;;;22.85;3.72;;;;;;;7.71;100.00;102939.47;4897529;29;20131;-79
2022/01/17 10:13:45;;;;;;;31.30;5.35;;;;;;;7.81;100.00;102931.94;4913169;29;20068;-79
2022/01/17 10:16:19;;;;;;;23.98;4.40;;;;;;;7.77;100.00;102925.13;4911640;29;20420;-79
2022/01/17 10:19:02;;;;;;;26.02;3.92;;;;;;;7.82;100.00;102952.06;4913389;29;20027;-78
2022/01/17 10:21:38;;;;;;;17.00;3.33;;;;;;;7.67;100.00;102901.13;4914756;29;20042;-78
2022/01/17 10:24:27;;;;;;;19.88;3.53;;;;;;;7.88;100.00;102954.34;4917726;29;20111;-79
2022/01/17 10:37:19;;;;;;;26.85;4.72;;;;;;;7.81;100.00;102977.47;4926160;29;20055;-79
2022/01/17 10:40:03;;;;;;;21.70;4.30;;;;;;;7.71;100.00;102951.72;4901737;29;20032;-79
2022/01/17 10:42:35;;;;;;;33.80;5.32;;;;;;;7.81;100.00;102959.06;4925591;29;20028;-79
2022/01/17 10:45:12;;;;;;;;;;;;;;;7.86;100.00;102963.25;4903456;29;20397;-79
2022/01/17 10:47:43;;;;;;;30.27;4.38;;;;;;;7.71;100.00;102942.09;4910335;29;19910;-79
2022/01/17 10:50:14;;;;;;;13.02;3.33;;;;;;;7.91;100.00;102966.50;4896646;29;20119;-79
2022/01/17 10:52:47;;;;;;;24.77;4.50;;;;;;;7.74;100.00;102954.22;4913868;29;20059;-79
2022/01/17 10:55:24;;;;;;;26.73;5.95;;;;;;;7.90;100.00;102980.56;4914937;29;20103;-79
2022/01/17 10:58:03;;;;;;;36.95;4.78;;;;;;;7.91;100.00;102971.75;4907047;29;20046;-79
2022/01/17 11:00:31;;;;;;;22.17;3.55;;;;;;;7.87;100.00;102960.53;4907170;29;20044;-79
2022/01/17 11:03:02;;;;;;;31.83;4.25;;;;;;;7.93;100.00;102980.41;4918512;29;20361;-79
2022/01/17 11:05:28;;;;;;;32.47;4.68;;;;;;;7.87;100.00;102983.34;4925345;29;20032;-79
2022/01/17 11:07:56;;;;;;;28.73;5.55;;;;;;;7.77;100.00;102961.94;4914157;29;20031;-79
2022/01/17 11:10:27;;;;;;;27.33;4.70;;;;;;;7.88;100.00;103013.97;4905637;29;20114;-79
2022/01/17 11:12:54;;;;;;;22.80;4.90;;;;;;;7.82;100.00;103005.47;4908826;29;20058;-79
2022/01/17 11:15:22;;;;;;;31.88;4.43;;;;;;;7.80;100.00;102998.59;4927821;29;20027;-79
2022/01/17 11:17:55;;;;;;;26.10;4.32;;;;;;;7.79;100.00;102981.94;4921057;29;20232;-79
2022/01/17 11:20:25;;;;;;;24.67;5.00;;;;;;;7.74;100.00;102991.03;4907512;29;20035;-78
2022/01/17 11:22:53;;;;;;;22.30;4.38;;;;;;;7.92;100.00;102997.09;4923527;29;20408;-78
2022/01/17 11:25:28;;;;;;;25.90;3.78;;;;;;;8.00;100.00;102993.13;4911413;29;20032;-78
2022/01/17 11:27:54;;;;;;;25.05;4.53;;;;;;;8.05;100.00;103003.41;4919389;29;20054;-79
2022/01/17 11:30:21;;;;;;;29.73;5.03;;;;;;;8.07;100.00;103001.56;4914304;29;20408;-79
2022/01/17 11:32:50;;;;;;;33.75;5.70;;;;;;;8.11;100.00;102973.31;4893474;29;20066;-79
2022/01/17 11:35:17;;;;;;;23.52;5.80;;;;;;;8.35;100.00;102992.19;4911605;29;20031;-78
2022/01/17 11:37:58;;;;;;;32.35;6.15;;;;;;;8.39;100.00;102984.06;4908670;29;20220;-79
2022/01/17 11:40:35;;;;;;;26.23;3.55;;;;;;;8.33;100.00;102973.00;4910573;29;20235;-80
2022/01/17 11:43:16;;;;;;;25.00;4.13;;;;;;;8.44;100.00;102984.69;4921260;29;20110;-79
2022/01/17 11:45:42;;;;;;;23.20;4.78;;;;;;;8.61;100.00;102983.75;4925892;29;20481;-79
2022/01/17 11:48:30;;;;;;;25.25;5.18;;;;;;;8.97;99.74;102993.19;4891626;29;20122;-79
2022/01/17 11:51:11;;;;;;;23.90;3.78;;;;;;;8.85;98.96;102978.06;4919167;29;20120;-79
2022/01/17 11:53:39;;;;;;;28.70;5.53;;;;;;;9.13;98.49;103005.47;4906771;29;20075;-79